Time;durP1;ratioP1;P1;durP2;ratioP2;P2;SDS_P1;SDS_P2;PMS_P1;PMS_P2;Temp;Humidity;BMP_temperature;BMP_pressure;BME280_temperature;BME280_humidity;BME280_pressure;Samples;Min_cycle;Max_cycle;Signal;HPM_P1;HPM_P2
2023/09/01 00:02:20;;;;;;;;;2.00;1.00;;;;;19.33;79.72;100889.88;5037446;28;45347;-43
2023/09/01 00:04:46;;;;;;;;;2.25;1.00;;;;;19.31;79.85;100889.28;5037766;28;45376;-42
2023/09/01 00:07:11;;;;;;;;;3.00;1.25;;;;;19.30;80.19;100887.59;5037370;28;45359;-41
2023/09/01 00:09:36;;;;;;;;;1.00;1.00;;;;;19.27;80.13;100893.41;5037270;28;45392;-43
2023/09/01 00:12:02;;;;;;;;;1.00;1.00;;;;;19.23;80.24;100879.47;5037673;28;45452;-41
2023/09/01 00:14:27;;;;;;;;;0.50;0.50;;;;;19.25;80.47;100880.09;5037290;28;45462;-42
2023/09/01 00:16:53;;;;;;;;;1.75;1.75;;;;;19.03;80.51;100843.47;5037343;28;45764;-43
2023/09/01 00:19:18;;;;;;;;;2.75;1.00;;;;;19.22;80.30;100874.28;5037117;28;45548;-44
2023/09/01 00:21:44;;;;;;;;;1.00;1.00;;;;;19.24;80.40;100878.44;5037213;28;45401;-45
2023/09/01 00:24:09;;;;;;;;;1.50;1.25;;;;;19.27;80.39;100877.22;5037250;28;45430;-45
2023/09/01 00:26:35;;;;;;;;;2.00;2.00;;;;;19.27;80.05;100880.75;5036814;28;45428;-46
2023/09/01 00:29:00;;;;;;;;;1.00;1.00;;;;;19.27;80.37;100869.94;5037044;28;45259;-45
2023/09/01 00:31:25;;;;;;;;;1.00;1.00;;;;;19.26;80.20;100864.78;5037042;28;45254;-43
2023/09/01 00:33:51;;;;;;;;;2.00;2.00;;;;;19.28;80.40;100873.47;5037408;28;45469;-41
2023/09/01 00:36:16;;;;;;;;;1.00;1.00;;;;;19.28;80.79;100879.69;5035613;28;46024;-41
2023/09/01 00:38:41;;;;;;;;;1.25;1.25;;;;;19.24;80.20;100873.03;5036629;28;45376;-42
2023/09/01 00:41:07;;;;;;;;;1.00;1.00;;;;;19.28;80.77;100882.41;5036891;28;45279;-42
2023/09/01 00:43:32;;;;;;;;;1.00;1.00;;;;;19.30;80.30;100882.19;5037194;28;45213;-44
2023/09/01 00:45:58;;;;;;;;;1.00;1.00;;;;;19.31;80.16;100881.19;5036718;28;45457;-45
2023/09/01 00:48:24;;;;;;;;;1.50;1.00;;;;;19.32;80.55;100877.44;5036898;28;45503;-43
2023/09/01 00:50:50;;;;;;;;;1.50;1.00;;;;;19.34;80.97;100883.44;5052014;28;45428;-45
2023/09/01 00:53:18;;;;;;;;;2.25;1.00;;;;;19.28;80.66;100884.28;5057132;28;45422;-42
2023/09/01 00:55:43;;;;;;;;;2.00;2.00;;;;;19.36;80.67;100884.94;5056957;28;46152;-44
2023/09/01 00:58:09;;;;;;;;;3.00;2.00;;;;;19.33;80.37;100881.78;5056530;28;45502;-45
2023/09/01 01:00:34;;;;;;;;;1.75;1.00;;;;;19.34;80.72;100886.16;5056932;28;45406;-43
2023/09/01 01:03:05;;;;;;;;;2.00;2.00;;;;;19.33;81.04;100881.78;5057252;28;45309;-42
2023/09/01 01:05:48;;;;;;;;;1.50;1.00;;;;;19.31;81.02;100879.31;5056586;28;46247;-43
2023/09/01 01:08:28;;;;;;;;;1.00;1.00;;;;;19.36;81.11;100884.94;5056522;28;45344;-44
2023/09/01 01:11:14;;;;;;;;;2.75;2.75;;;;;19.35;80.75;100883.28;5056722;28;45513;-42
2023/09/01 01:13:46;;;;;;;;;2.00;1.00;;;;;19.32;80.78;100869.34;5056796;28;45637;-43
2023/09/01 01:16:15;;;;;;;;;1.00;1.00;;;;;19.37;80.86;100883.88;5055866;28;47584;-43
2023/09/01 01:18:45;;;;;;;;;4.50;1.00;;;;;19.35;80.35;100880.56;5056574;28;45233;-42
2023/09/01 01:21:21;;;;;;;;;0.75;0.75;;;;;19.29;80.48;100867.03;5056701;28;45642;-43
2023/09/01 01:23:46;;;;;;;;;1.00;1.00;;;;;19.36;80.39;100876.00;5056624;28;45246;-44
2023/09/01 01:26:15;;;;;;;;;3.00;1.75;;;;;19.37;80.49;100878.50;5056166;28;46199;-44
2023/09/01 01:28:40;;;;;;;;;0.60;0.60;;;;;19.39;80.26;100872.91;5056537;28;45405;-44
2023/09/01 01:31:06;;;;;;;;;1.75;1.75;;;;;19.39;79.99;100875.63;5055656;28;45371;-44
2023/09/01 01:33:43;;;;;;;;;2.50;0.25;;;;;19.37;80.05;100870.41;5056751;28;45461;-42
2023/09/01 01:36:18;;;;;;;;;1.00;1.00;;;;;19.37;79.68;100872.25;5056047;28;46218;-43
2023/09/01 01:38:51;;;;;;;;;0.40;0.40;;;;;19.37;79.61;100872.25;5056118;28;45253;-43
2023/09/01 01:41:48;;;;;;;;;2.00;2.00;;;;;19.36;79.43;100876.84;5056036;28;45333;-43
2023/09/01 01:44:18;;;;;;;;;2.00;0.00;;;;;19.32;80.02;100866.66;5056392;28;45350;-43
2023/09/01 01:46:44;;;;;;;;;1.00;1.00;;;;;19.32;79.61;100861.25;5054703;28;46474;-44
2023/09/01 01:49:10;;;;;;;;;1.20;0.80;;;;;19.34;79.41;100868.13;5054399;28;45479;-43
2023/09/01 01:51:36;;;;;;;;;0.00;0.00;;;;;19.32;78.63;100874.75;5054935;28;45366;-42
2023/09/01 01:54:02;;;;;;;;;2.00;1.00;;;;;19.28;79.22;100860.00;5056543;28;45268;-42
2023/09/01 01:56:27;;;;;;;;;3.00;1.00;;;;;19.31;79.15;100859.59;5055916;28;45344;-41
2023/09/01 01:58:53;;;;;;;;;1.00;1.00;;;;;19.30;79.11;100868.69;5056111;28;45262;-44
2023/09/01 02:01:18;;;;;;;;;0.00;0.00;;;;;19.24;78.38;100846.06;5055675;28;45486;-41
2023/09/01 02:03:44;;;;;;;;;1.00;1.00;;;;;19.27;78.76;100866.44;5056245;28;45432;-46
2023/09/01 02:06:10;;;;;;;;;1.00;1.00;;;;;19.24;78.17;100856.03;5055840;28;45482;-43
2023/09/01 02:08:35;;;;;;;;;1.50;1.00;;;;;19.18;78.33;100850.41;5055872;28;45362;-45
2023/09/01 02:11:01;;;;;;;;;0.25;0.25;;;;;19.16;78.41;100857.84;5055980;28;45380;-46
2023/09/01 02:13:26;;;;;;;;;1.25;1.00;;;;;19.15;78.27;100863.47;5056086;28;45324;-44
2023/09/01 02:15:54;;;;;;;;;0.00;0.00;;;;;19.06;78.42;100845.78;5055435;28;46467;-46
2023/09/01 02:18:20;;;;;;;;;0.60;0.00;;;;;19.08;78.01;100851.81;5055650;28;45317;-46
2023/09/01 02:20:46;;;;;;;;;2.50;1.50;;;;;19.08;78.30;100849.94;5055691;28;45291;-48
2023/09/01 02:23:15;;;;;;;;;0.00;0.00;;;;;19.10;77.94;100855.16;5055619;28;45684;-42
2023/09/01 02:25:40;;;;;;;;;1.00;0.25;;;;;19.06;77.88;100846.63;5055527;28;45513;-45
2023/09/01 02:28:05;;;;;;;;;0.00;0.00;;;;;19.09;77.48;100853.50;5055515;28;45467;-42
2023/09/01 02:30:31;;;;;;;;;1.00;0.00;;;;;19.10;77.92;100860.53;5055665;28;45506;-45
2023/09/01 02:32:56;;;;;;;;;1.00;1.00;;;;;19.10;77.72;100853.28;5055727;28;45586;-45
2023/09/01 02:35:22;;;;;;;;;0.50;0.50;;;;;19.09;77.76;100856.19;5054924;28;45377;-43
2023/09/01 02:37:49;;;;;;;;;2.00;1.00;;;;;19.10;77.75;100857.84;5055420;28;45471;-43
2023/09/01 02:40:14;;;;;;;;;1.00;1.00;;;;;19.10;77.45;100855.97;5055353;28;45320;-44
2023/09/01 02:42:40;;;;;;;;;1.00;1.00;;;;;19.09;77.69;100848.09;5055691;28;45469;-43
2023/09/01 02:45:08;;;;;;;;;0.50;0.50;;;;;19.03;77.40;100843.47;5055028;28;45376;-44
2023/09/01 02:47:35;;;;;;;;;1.00;1.00;;;;;19.08;77.63;100852.63;5054180;28;45261;-44
2023/09/01 02:50:02;;;;;;;;;0.75;0.75;;;;;18.97;77.19;100845.13;5055667;28;45499;-45
2023/09/01 02:52:27;;;;;;;;;0.00;0.00;;;;;19.01;77.41;100853.66;5055605;28;45425;-43
2023/09/01 02:54:53;;;;;;;;;0.75;0.75;;;;;18.98;77.95;100848.66;5055288;28;46017;-45
2023/09/01 02:57:18;;;;;;;;;1.00;0.00;;;;;18.93;77.73;100849.25;5055030;28;45414;-45
2023/09/01 02:59:43;;;;;;;;;1.50;1.50;;;;;18.95;77.69;100855.25;5055648;28;45347;-47
2023/09/01 03:02:09;;;;;;;;;0.75;0.75;;;;;18.94;77.27;100850.91;5058713;28;45384;-46
2023/09/01 03:04:34;;;;;;;;;2.00;1.00;;;;;18.94;77.80;100864.38;5058615;28;46186;-43
2023/09/01 03:06:59;;;;;;;;;1.00;0.00;;;;;18.89;77.51;100862.28;5058850;28;45443;-44
2023/09/01 03:09:25;;;;;;;;;2.25;1.25;;;;;18.92;77.68;100867.28;5058541;28;45666;-45
2023/09/01 03:11:50;;;;;;;;;2.00;1.00;;;;;18.92;77.65;100875.38;5058790;28;45392;-43
2023/09/01 03:14:15;;;;;;;;;2.00;1.00;;;;;18.88;77.96;100859.81;5058607;28;45319;-45
2023/09/01 03:16:43;;;;;;;;;1.00;1.00;;;;;18.92;77.78;100867.28;5058501;28;45435;-44
2023/09/01 03:19:09;;;;;;;;;0.50;0.50;;;;;18.90;78.19;100860.41;5058647;28;45482;-45
2023/09/01 03:21:34;;;;;;;;;1.50;0.75;;;;;18.91;77.84;100862.06;5058625;28;45237;-46
2023/09/01 03:23:59;;;;;;;;;2.25;2.25;;;;;18.89;77.87;100864.16;5058184;28;46590;-44
2023/09/01 03:26:25;;;;;;;;;0.75;0.75;;;;;18.86;77.54;100859.97;5058348;28;45391;-44
2023/09/01 03:28:52;;;;;;;;;0.75;0.75;;;;;18.85;77.97;100857.50;5058552;28;45687;-47
2023/09/01 03:31:17;;;;;;;;;2.00;1.00;;;;;18.84;78.25;100862.06;5058376;28;45409;-48
2023/09/01 03:33:43;;;;;;;;;1.00;1.00;;;;;18.80;78.23;100862.66;5058291;28;47171;-42
2023/09/01 03:36:09;;;;;;;;;1.00;1.00;;;;;18.83;78.18;100860.38;5057390;28;45380;-44
2023/09/01 03:38:35;;;;;;;;;0.00;0.00;;;;;18.81;78.23;100864.31;5058602;28;45312;-43
2023/09/01 03:41:01;;;;;;;;;2.25;0.00;;;;;18.81;78.06;100856.22;5058545;28;45329;-45
2023/09/01 03:43:27;;;;;;;;;1.00;1.00;;;;;18.80;78.39;100854.56;5057977;28;45387;-46
2023/09/01 03:45:52;;;;;;;;;1.00;0.00;;;;;18.73;78.30;100843.72;5058002;28;45376;-43
2023/09/01 03:48:17;;;;;;;;;1.00;1.00;;;;;18.79;78.17;100855.56;5058081;28;45396;-42
2023/09/01 03:50:43;;;;;;;;;0.00;0.00;;;;;18.79;78.25;100850.19;5058159;28;45449;-45
2023/09/01 03:53:08;;;;;;;;;2.00;0.00;;;;;18.78;78.23;100856.63;5057767;28;46082;-45
2023/09/01 03:55:34;;;;;;;;;1.00;1.00;;;;;18.78;78.65;100843.97;5057962;28;45316;-43
2023/09/01 03:58:00;;;;;;;;;0.50;0.50;;;;;18.79;78.36;100859.09;5058276;28;45437;-44
2023/09/01 04:00:25;;;;;;;;;2.00;2.00;;;;;18.77;78.62;100857.66;5057850;28;45371;-43
2023/09/01 04:02:51;;;;;;;;;1.00;1.00;;;;;18.76;78.11;100851.44;5058019;28;45725;-46
2023/09/01 04:05:16;;;;;;;;;1.00;1.00;;;;;18.74;78.41;100852.66;5057532;28;45463;-43
2023/09/01 04:07:42;;;;;;;;;2.00;1.00;;;;;18.74;78.43;100855.34;5058050;28;45417;-44
2023/09/01 04:10:07;;;;;;;;;2.00;0.25;;;;;18.63;78.76;100844.06;5057975;28;45402;-42
2023/09/01 04:12:34;;;;;;;;;2.25;1.00;;;;;18.67;78.85;100847.19;5057357;28;46251;-41
2023/09/01 04:14:59;;;;;;;;;1.25;1.00;;;;;18.60;79.08;100838.22;5057756;28;45400;-42
2023/09/01 04:17:26;;;;;;;;;5.00;2.00;;;;;18.51;79.16;100823.25;5056907;28;45632;-41
2023/09/01 04:19:52;;;;;;;;;2.75;1.00;;;;;18.54;79.01;100834.47;5057671;28;45319;-42
2023/09/01 04:22:17;;;;;;;;;2.00;0.00;;;;;18.52;79.58;100830.28;5057175;28;45274;-42
2023/09/01 04:24:43;;;;;;;;;2.00;2.00;;;;;18.51;79.47;100840.25;5057389;28;45235;-42
2023/09/01 04:27:08;;;;;;;;;3.00;1.00;;;;;18.45;79.95;100825.69;5057307;28;45459;-42
2023/09/01 04:29:35;;;;;;;;;2.25;1.00;;;;;18.52;79.56;100835.69;5057943;28;45271;-42
2023/09/01 04:32:01;;;;;;;;;1.75;1.50;;;;;18.51;79.54;100823.25;5057429;28;46656;-42
2023/09/01 04:34:26;;;;;;;;;1.00;1.00;;;;;18.49;79.91;100827.97;5057352;28;45518;-42
2023/09/01 04:36:51;;;;;;;;;3.75;2.00;;;;;18.49;79.96;100836.91;5056959;28;45657;-43
2023/09/01 04:39:17;;;;;;;;;1.00;1.00;;;;;18.42;80.02;100831.47;5057239;28;45333;-41
2023/09/01 04:41:42;;;;;;;;;2.00;2.00;;;;;18.42;80.08;100839.56;5056442;28;45376;-43
2023/09/01 04:44:08;;;;;;;;;3.75;2.25;;;;;18.40;80.40;100836.22;5056706;28;45336;-44
2023/09/01 04:46:33;;;;;;;;;1.00;1.00;;;;;18.45;80.01;100851.78;5056988;28;45447;-44
2023/09/01 04:48:58;;;;;;;;;3.25;2.00;;;;;18.46;80.15;100848.09;5057031;28;45358;-44
2023/09/01 04:51:24;;;;;;;;;0.50;0.50;;;;;18.42;80.24;100833.34;5056772;28;45609;-42
2023/09/01 04:53:49;;;;;;;;;3.50;2.00;;;;;18.52;80.41;100847.28;5056997;28;45363;-44
2023/09/01 04:56:14;;;;;;;;;2.00;2.00;;;;;18.47;80.02;100841.66;5056806;28;45714;-45
2023/09/01 04:58:40;;;;;;;;;4.50;2.00;;;;;18.51;80.40;100845.63;5055805;28;45452;-45
2023/09/01 05:01:05;;;;;;;;;2.00;2.00;;;;;18.51;80.33;100848.31;5056730;28;45463;-45
2023/09/01 05:03:30;;;;;;;;;1.00;1.00;;;;;18.55;79.23;100846.91;5056787;28;45362;-44
2023/09/01 05:05:57;;;;;;;;;3.50;0.50;;;;;18.54;80.24;100856.03;5056948;28;45427;-46
2023/09/01 05:08:22;;;;;;;;;0.00;0.00;;;;;18.55;80.23;100843.38;5056929;28;45554;-44
2023/09/01 05:10:48;;;;;;;;;1.25;1.00;;;;;18.52;79.89;100844.59;5056667;28;46095;-42
2023/09/01 05:13:13;;;;;;;;;1.75;1.75;;;;;18.56;80.07;100843.16;5056593;28;45222;-44
2023/09/01 05:15:38;;;;;;;;;1.25;1.25;;;;;18.56;80.11;100848.56;5056866;28;45386;-46
2023/09/01 05:18:04;;;;;;;;;2.00;1.00;;;;;18.55;80.39;100846.06;5056831;28;45292;-44
2023/09/01 05:20:29;;;;;;;;;1.00;1.00;;;;;18.64;79.83;100852.97;5056267;28;46201;-44
2023/09/01 05:22:55;;;;;;;;;1.50;1.00;;;;;18.60;80.05;100841.75;5055708;28;45381;-45
2023/09/01 05:25:20;;;;;;;;;4.25;2.00;;;;;18.60;79.90;100843.63;5055232;28;45338;-45
2023/09/01 05:27:46;;;;;;;;;3.25;2.00;;;;;18.64;80.28;100842.19;5056666;28;45368;-46
2023/09/01 05:30:12;;;;;;;;;0.25;0.25;;;;;18.64;80.03;100845.72;5056455;28;46621;-44
2023/09/01 05:32:38;;;;;;;;;1.00;1.00;;;;;18.63;80.30;100837.84;5056163;28;45429;-44
2023/09/01 05:35:03;;;;;;;;;1.00;1.00;;;;;18.65;79.91;100836.59;5056471;28;45376;-43
2023/09/01 05:37:29;;;;;;;;;4.25;2.75;;;;;18.64;80.31;100839.50;5056084;28;45365;-43
2023/09/01 05:39:56;;;;;;;;;2.00;1.25;;;;;18.68;80.14;100851.56;5056108;28;46112;-42
2023/09/01 05:42:21;;;;;;;;;1.75;1.00;;;;;18.68;80.16;100852.38;5056028;28;45288;-45
2023/09/01 05:44:46;;;;;;;;;4.00;2.00;;;;;18.69;80.11;100848.69;5056111;28;45814;-45
2023/09/01 05:47:12;;;;;;;;;3.00;2.00;;;;;18.73;80.41;100859.06;5056305;28;45432;-46
2023/09/01 05:49:37;;;;;;;;;3.75;1.00;;;;;18.74;79.94;100855.34;5056057;28;45903;-43
2023/09/01 05:52:03;;;;;;;;;3.50;2.00;;;;;18.76;80.39;100866.78;5056239;28;45391;-43
2023/09/01 05:54:29;;;;;;;;;3.75;2.00;;;;;18.70;80.40;100861.13;5056147;28;45351;-43
2023/09/01 05:56:54;;;;;;;;;0.75;0.75;;;;;18.79;79.95;100869.06;5056213;28;45179;-46
2023/09/01 05:59:20;;;;;;;;;1.00;1.00;;;;;18.78;80.35;100879.00;5055977;28;46232;-41
2023/09/01 06:01:46;;;;;;;;;1.75;1.00;;;;;18.80;80.28;100870.75;5055697;28;45408;-44
2023/09/01 06:04:12;;;;;;;;;3.00;1.50;;;;;18.81;80.45;100880.47;5056127;28;45800;-43
2023/09/01 06:06:37;;;;;;;;;0.25;0.00;;;;;18.80;80.54;100886.91;5055940;28;45413;-42
2023/09/01 06:09:07;;;;;;;;;3.50;2.00;;;;;18.77;80.11;100888.13;5055473;28;46265;-43
2023/09/01 06:11:33;;;;;;;;;2.25;1.00;;;;;18.80;80.73;100886.91;5055717;28;45264;-43
2023/09/01 06:13:59;;;;;;;;;1.50;1.50;;;;;18.81;80.55;100896.66;5055887;28;45755;-42
2023/09/01 06:16:25;;;;;;;;;1.75;1.00;;;;;18.78;80.93;100892.47;5055534;28;45741;-46
2023/09/01 06:18:51;;;;;;;;;5.00;1.00;;;;;18.80;80.33;100889.59;5055518;28;45392;-43
2023/09/01 06:21:16;;;;;;;;;3.00;1.00;;;;;18.82;80.78;100901.00;5055744;28;45474;-45
2023/09/01 06:23:44;;;;;;;;;2.25;1.00;;;;;18.83;80.85;100897.28;5056050;28;45621;-44
2023/09/01 06:26:14;;;;;;;;;2.00;1.00;;;;;18.85;79.91;100906.00;5055705;28;45430;-45
2023/09/01 06:28:40;;;;;;;;;4.75;1.75;;;;;18.84;80.96;100902.50;5054180;28;46467;-44
2023/09/01 06:31:05;;;;;;;;;3.25;1.50;;;;;18.86;80.67;100903.09;5055526;28;45426;-43
2023/09/01 06:33:31;;;;;;;;;2.00;2.00;;;;;18.88;80.68;100909.16;5055412;28;45422;-44
2023/09/01 06:35:56;;;;;;;;;2.75;2.75;;;;;18.89;80.65;100893.81;5057808;28;45440;-44
2023/09/01 06:38:21;;;;;;;;;3.75;2.00;;;;;19.03;80.26;100908.19;5059069;28;46317;-45
2023/09/01 06:40:47;;;;;;;;;2.00;1.00;;;;;19.15;80.14;100903.91;5058908;28;45432;-45
2023/09/01 06:43:12;;;;;;;;;2.00;1.00;;;;;19.23;79.26;100903.75;5058363;28;45451;-42
2023/09/01 06:45:37;;;;;;;;;4.75;1.00;;;;;19.35;78.97;100902.16;5059527;28;45339;-45
2023/09/01 06:48:03;;;;;;;;;2.50;1.00;;;;;19.33;78.80;100898.81;5059028;28;45831;-43
2023/09/01 06:50:29;;;;;;;;;4.25;2.00;;;;;19.29;78.76;100883.22;5058932;28;45357;-43
2023/09/01 06:52:54;;;;;;;;;0.00;0.00;;;;;19.40;78.65;100904.25;5059053;28;45465;-45
2023/09/01 06:55:19;;;;;;;;;3.00;3.00;;;;;19.39;78.95;100897.19;5057652;28;45427;-44
2023/09/01 06:57:45;;;;;;;;;4.50;1.50;;;;;19.40;78.72;100904.25;5058801;28;46443;-44
2023/09/01 07:00:11;;;;;;;;;3.25;2.00;;;;;19.41;78.87;100900.50;5057781;28;45321;-43
2023/09/01 07:02:36;;;;;;;;;2.25;2.25;;;;;19.42;79.06;100889.53;5058087;28;46066;-43
2023/09/01 07:05:05;;;;;;;;;2.00;2.00;;;;;19.49;78.57;100904.91;5055706;28;45931;-41
2023/09/01 07:07:30;;;;;;;;;1.50;1.50;;;;;19.48;79.01;100893.28;5054363;28;45395;-42
2023/09/01 07:09:55;;;;;;;;;1.75;1.75;;;;;19.60;78.77;100901.63;5054331;28;45401;-43
2023/09/01 07:12:21;;;;;;;;;3.00;1.50;;;;;19.57;78.88;100897.47;5054181;28;45498;-42
2023/09/01 07:14:46;;;;;;;;;1.00;1.00;;;;;19.63;78.24;100904.78;5055119;28;45378;-45
2023/09/01 07:17:12;;;;;;;;;1.00;1.00;;;;;19.66;78.41;100909.78;5054718;28;45573;-45
2023/09/01 07:19:37;;;;;;;;;1.00;1.00;;;;;19.66;78.30;100915.16;5054808;28;45545;-43
2023/09/01 07:22:05;;;;;;;;;1.00;1.00;;;;;19.66;78.35;100915.16;5054925;28;45529;-42
2023/09/01 07:24:33;;;;;;;;;1.00;1.00;;;;;19.73;77.57;100904.41;5055475;28;45481;-44
2023/09/01 07:26:59;;;;;;;;;2.00;1.00;;;;;19.76;78.22;100903.16;5054523;28;45854;-43
2023/09/01 07:29:24;;;;;;;;;2.00;2.00;;;;;19.81;78.22;100911.50;5052277;28;45468;-43
2023/09/01 07:31:49;;;;;;;;;2.00;1.00;;;;;19.84;78.19;100909.19;5055020;28;45449;-43
2023/09/01 07:34:15;;;;;;;;;3.50;1.00;;;;;19.89;78.43;100912.16;5055100;28;45586;-46
2023/09/01 07:36:40;;;;;;;;;1.50;1.00;;;;;19.94;78.07;100916.94;5054748;28;45466;-45
2023/09/01 07:39:05;;;;;;;;;1.00;1.00;;;;;19.99;77.84;100927.94;5055052;28;45352;-44
2023/09/01 07:41:31;;;;;;;;;1.00;1.00;;;;;19.96;77.92;100906.75;5054652;28;45492;-41
2023/09/01 07:43:56;;;;;;;;;2.00;0.25;;;;;20.02;77.90;100915.91;5054825;28;45409;-43
2023/09/01 07:46:21;;;;;;;;;1.00;1.00;;;;;20.02;78.13;100916.75;5053913;28;45605;-44
2023/09/01 07:48:47;;;;;;;;;1.75;1.00;;;;;20.10;77.82;100915.69;5054619;28;45771;-43
2023/09/01 07:51:12;;;;;;;;;0.50;0.00;;;;;20.11;78.00;100910.09;5054668;28;45961;-44
2023/09/01 07:53:38;;;;;;;;;2.00;1.25;;;;;20.16;77.19;100913.00;5054614;28;45443;-44
2023/09/01 07:56:04;;;;;;;;;3.00;1.00;;;;;20.20;77.42;100910.75;5054495;28;46371;-45
2023/09/01 07:58:30;;;;;;;;;1.80;0.80;;;;;20.33;77.56;100921.56;5054517;28;45480;-44
2023/09/01 08:00:55;;;;;;;;;2.00;1.00;;;;;20.35;77.25;100915.94;5054427;28;45518;-45
2023/09/01 08:03:20;;;;;;;;;2.00;1.00;;;;;20.44;77.04;100929.06;5054430;28;45588;-46
2023/09/01 08:05:46;;;;;;;;;1.00;1.00;;;;;20.47;76.91;100916.16;5054508;28;45836;-44
2023/09/01 08:08:14;;;;;;;;;3.25;0.00;;;;;20.49;76.47;100920.34;5055592;28;45958;-42
2023/09/01 08:10:40;;;;;;;;;1.60;1.00;;;;;20.52;76.03;100927.19;5054485;28;45485;-46
2023/09/01 08:13:06;;;;;;;;;1.00;1.00;;;;;20.50;75.87;100929.28;5054954;28;45944;-48
2023/09/01 08:15:35;;;;;;;;;1.25;1.25;;;;;20.51;76.01;100929.06;5053765;28;46526;-42
2023/09/01 08:18:00;;;;;;;;;1.00;1.00;;;;;20.52;76.08;100941.56;5053930;28;45439;-43
2023/09/01 08:20:26;;;;;;;;;2.00;1.00;;;;;20.56;75.98;100936.56;5054424;28;45489;-43
2023/09/01 08:22:51;;;;;;;;;0.50;0.50;;;;;20.60;75.75;100932.41;5054509;28;45510;-44
2023/09/01 08:25:17;;;;;;;;;2.00;0.00;;;;;20.64;75.12;100920.97;5053865;28;46528;-46
2023/09/01 08:27:43;;;;;;;;;1.00;1.00;;;;;20.78;74.56;100927.22;5051929;28;45523;-45
2023/09/01 08:30:09;;;;;;;;;2.50;1.00;;;;;20.75;75.17;100930.31;5054173;28;45518;-43
2023/09/01 08:32:35;;;;;;;;;0.25;0.25;;;;;20.78;74.71;100929.91;5048948;28;46952;-42
2023/09/01 08:35:03;;;;;;;;;4.00;1.25;;;;;20.73;74.51;100926.16;5052136;28;46152;-41
2023/09/01 08:37:29;;;;;;;;;0.00;0.00;;;;;20.72;74.90;100932.59;5053484;28;45541;-42
2023/09/01 08:39:54;;;;;;;;;1.00;1.00;;;;;20.74;74.54;100925.97;5053833;28;45489;-43
2023/09/01 08:42:21;;;;;;;;;0.00;0.00;;;;;20.69;74.11;100925.78;5051715;28;45792;-44
2023/09/01 08:44:48;;;;;;;;;1.00;1.00;;;;;20.71;74.06;100917.44;5052812;28;45516;-44
2023/09/01 08:47:17;;;;;;;;;0.00;0.00;;;;;20.91;74.01;100931.78;5053441;28;45458;-42
2023/09/01 08:49:42;;;;;;;;;0.00;0.00;;;;;21.10;73.12;100928.19;5053343;28;45553;-42
2023/09/01 08:52:09;;;;;;;;;1.00;1.00;;;;;21.17;72.20;100936.31;5053515;28;45464;-43
2023/09/01 08:54:37;;;;;;;;;0.50;0.50;;;;;21.12;72.37;100930.69;5051551;28;46500;-43
2023/09/01 08:57:03;;;;;;;;;3.00;1.00;;;;;21.21;72.28;100939.41;5052884;28;45379;-42
2023/09/01 08:59:28;;;;;;;;;1.50;1.50;;;;;21.36;72.33;100953.53;5053195;28;45471;-43
2023/09/01 09:01:54;;;;;;;;;5.00;3.75;;;;;21.45;71.39;100941.47;5053160;28;45397;-42
2023/09/01 09:04:19;;;;;;;;;3.75;2.50;;;;;21.41;70.89;100932.94;5053491;28;46127;-44
2023/09/01 09:06:45;;;;;;;;;1.00;1.00;;;;;21.46;70.98;100947.72;5053289;28;45238;-42
2023/09/01 09:09:14;;;;;;;;;3.00;1.50;;;;;21.41;70.99;100946.47;5053887;28;45371;-42
2023/09/01 09:11:59;;;;;;;;;2.50;1.50;;;;;21.47;70.99;100941.25;5054016;28;45419;-41
2023/09/01 09:14:25;;;;;;;;;1.50;1.50;;;;;21.61;70.53;100946.38;5053385;28;46292;-44
2023/09/01 09:16:55;;;;;;;;;2.20;2.00;;;;;21.99;69.57;100937.44;5053346;28;45413;-43
2023/09/01 09:19:21;;;;;;;;;3.00;2.00;;;;;23.13;66.20;100930.97;5053067;28;45504;-44
2023/09/01 09:21:47;;;;;;;;;2.50;2.50;;;;;24.61;64.00;100937.78;5052673;28;45521;-40
2023/09/01 09:24:13;;;;;;;;;3.40;2.60;;;;;26.55;57.74;100927.38;5052986;28;46301;-44
2023/09/01 09:26:38;;;;;;;;;1.25;0.75;;;;;28.29;54.98;100939.44;5053082;28;45573;-42
2023/09/01 09:29:11;;;;;;;;;2.00;2.00;;;;;28.91;48.54;100927.09;5053017;28;45402;-43
2023/09/01 09:31:39;;;;;;;;;2.80;2.00;;;;;30.51;47.69;100933.69;5052622;28;45467;-43
2023/09/01 09:34:18;;;;;;;;;1.00;1.00;;;;;30.92;48.04;100927.31;5052468;28;46361;-44
2023/09/01 09:36:45;;;;;;;;;1.00;1.00;;;;;30.47;45.76;100935.34;5052596;28;45464;-41
2023/09/01 09:39:21;;;;;;;;;0.40;0.40;;;;;29.12;48.95;100946.38;5052680;28;46532;-42
2023/09/01 09:41:47;;;;;;;;;1.80;0.80;;;;;28.06;50.10;100942.47;5053090;28;45167;-43
2023/09/01 09:44:32;;;;;;;;;0.20;0.20;;;;;27.55;51.65;100942.72;5052262;28;45480;-44
2023/09/01 09:46:58;;;;;;;;;1.00;1.00;;;;;26.90;52.37;100927.06;5050981;28;45500;-44
2023/09/01 09:49:24;;;;;;;;;1.50;1.00;;;;;26.79;51.97;100928.81;5052338;28;45340;-42
2023/09/01 09:51:51;;;;;;;;;4.20;1.20;;;;;27.72;50.39;100930.88;5052681;28;45648;-43
2023/09/01 09:54:20;;;;;;;;;1.80;1.80;;;;;28.14;50.75;100935.72;5049729;28;46550;-45
2023/09/01 09:56:48;;;;;;;;;2.60;1.00;;;;;28.59;49.71;100932.59;5052592;28;45447;-43
2023/09/01 09:59:17;;;;;;;;;0.60;0.60;;;;;28.25;49.73;100934.75;5052122;28;45556;-43
2023/09/01 10:01:45;;;;;;;;;1.00;1.00;;;;;27.64;49.49;100937.63;5052470;28;45557;-44
2023/09/01 10:04:11;;;;;;;;;1.00;1.00;;;;;28.42;48.01;100940.13;5052123;28;45581;-41
2023/09/01 10:06:36;;;;;;;;;2.00;2.00;;;;;31.04;45.04;100930.59;5052065;28;45414;-44
2023/09/01 10:09:07;;;;;;;;;2.00;1.75;;;;;34.36;38.77;100925.63;5051888;28;45421;-44
2023/09/01 10:11:33;;;;;;;;;1.40;1.20;;;;;36.00;34.86;100936.28;5052792;28;45490;-44
2023/09/01 10:14:00;;;;;;;;;2.25;1.00;;;;;36.13;34.38;100938.19;5051901;28;47344;-44
2023/09/01 10:16:25;;;;;;;;;1.00;1.00;;;;;34.43;35.68;100933.53;5051533;28;45236;-43
2023/09/01 10:18:55;;;;;;;;;2.00;1.75;;;;;32.72;38.01;100940.66;5052056;28;45422;-44
2023/09/01 10:21:20;;;;;;;;;1.60;1.00;;;;;32.26;39.85;100937.47;5052623;28;45526;-42
2023/09/01 10:23:47;;;;;;;;;2.00;1.25;;;;;32.67;39.38;100940.72;5052040;28;46000;-44
2023/09/01 10:26:15;;;;;;;;;0.80;0.80;;;;;33.67;37.55;100929.97;5049218;28;45497;-45
2023/09/01 10:29:01;;;;;;;;;1.20;0.80;;;;;32.56;39.92;100939.16;5051903;28;45511;-42
2023/09/01 10:31:30;;;;;;;;;1.00;1.00;;;;;31.33;42.36;100933.56;5052230;28;45460;-43
2023/09/01 10:34:10;;;;;;;;;3.80;1.00;;;;;30.13;43.43;100945.13;5052468;28;46287;-43
2023/09/01 10:36:37;;;;;;;;;1.00;1.00;;;;;29.19;44.07;100908.63;5052124;28;45419;-46
2023/09/01 10:39:24;;;;;;;;;0.20;0.20;;;;;28.53;46.24;100941.88;5052464;28;45427;-46
2023/09/01 10:42:03;;;;;;;;;0.00;0.00;;;;;27.79;47.23;100939.75;5052124;28;45542;-44
2023/09/01 10:44:40;;;;;;;;;0.00;0.00;;;;;27.11;48.47;100944.59;5051887;28;47079;-46
2023/09/01 10:47:30;;;;;;;;;1.20;1.20;;;;;26.58;49.32;100948.66;5052073;28;45454;-41
2023/09/01 10:49:59;;;;;;;;;0.00;0.00;;;;;26.30;50.22;100946.81;5052103;28;45360;-43
2023/09/01 10:52:28;;;;;;;;;2.00;1.00;;;;;26.12;51.13;100948.69;5050891;28;45557;-42
2023/09/01 10:54:59;;;;;;;;;1.80;0.20;;;;;25.92;51.52;100945.59;5051493;28;46010;-43
2023/09/01 10:57:43;;;;;;;;;2.20;0.60;;;;;25.89;51.53;100951.50;5051253;28;45454;-43
2023/09/01 11:00:31;;;;;;;;;0.80;0.00;;;;;26.74;50.46;100944.28;5050338;28;45459;-42
2023/09/01 11:03:33;;;;;;;;;1.60;0.20;;;;;27.15;49.46;100937.56;5052406;28;45520;-41
2023/09/01 11:06:01;;;;;;;;;0.00;0.00;;;;;27.52;48.93;100948.72;5050995;28;47137;-41
2023/09/01 11:08:27;;;;;;;;;1.60;1.60;;;;;27.74;48.01;100936.97;5051238;28;45462;-41
2023/09/01 11:11:05;;;;;;;;;1.00;1.00;;;;;27.81;47.75;100941.16;5051170;28;45826;-44
2023/09/01 11:13:31;;;;;;;;;0.80;0.80;;;;;28.42;46.46;100940.13;5051381;28;45525;-41
2023/09/01 11:15:56;;;;;;;;;0.00;0.00;;;;;28.73;46.23;100933.78;5052219;28;45593;-42
2023/09/01 11:18:23;;;;;;;;;1.75;0.00;;;;;28.64;45.99;100945.50;5051603;28;45566;-44
2023/09/01 11:20:53;;;;;;;;;2.40;0.60;;;;;28.00;46.59;100957.19;5052095;28;46329;-45
2023/09/01 11:23:25;;;;;;;;;0.40;0.00;;;;;27.78;48.09;100944.41;5054944;28;45624;-43
2023/09/01 11:25:57;;;;;;;;;0.40;0.00;;;;;27.80;48.08;100947.69;5054826;28;46481;-44